sensor_id;sensor_type;location;lat;lon;timestamp;P1;durP1;ratioP1;P2;durP2;ratioP2
53797;SDS011;39707;45.384;9.300;2022-09-28T00:02:21;11.40;;;0.65;;
53797;SDS011;39707;45.384;9.300;2022-09-28T00:04:48;0.73;;;0.65;;
53797;SDS011;39707;45.384;9.300;2022-09-28T00:07:14;1.55;;;0.75;;
53797;SDS011;39707;45.384;9.300;2022-09-28T00:09:40;0.77;;;0.35;;
53797;SDS011;39707;45.384;9.300;2022-09-28T00:12:06;1.23;;;1.05;;
53797;SDS011;39707;45.384;9.300;2022-09-28T00:14:31;3.40;;;1.90;;
53797;SDS011;39707;45.384;9.300;2022-09-28T00:16:59;0.30;;;0.20;;
53797;SDS011;39707;45.384;9.300;2022-09-28T00:19:25;0.70;;;0.47;;
53797;SDS011;39707;45.384;9.300;2022-09-28T00:21:51;1.50;;;0.60;;
53797;SDS011;39707;45.384;9.300;2022-09-28T00:24:17;0.45;;;0.45;;
53797;SDS011;39707;45.384;9.300;2022-09-28T00:26:51;0.50;;;0.50;;
53797;SDS011;39707;45.384;9.300;2022-09-28T00:31:48;0.70;;;0.70;;
53797;SDS011;39707;45.384;9.300;2022-09-28T00:34:16;0.77;;;0.47;;
53797;SDS011;39707;45.384;9.300;2022-09-28T00:36:44;0.40;;;0.40;;
53797;SDS011;39707;45.384;9.300;2022-09-28T00:39:10;0.25;;;0.25;;
53797;SDS011;39707;45.384;9.300;2022-09-28T00:41:37;0.28;;;0.28;;
53797;SDS011;39707;45.384;9.300;2022-09-28T00:44:21;1.17;;;1.08;;
53797;SDS011;39707;45.384;9.300;2022-09-28T00:46:53;0.00;;;0.00;;
53797;SDS011;39707;45.384;9.300;2022-09-28T00:51:46;0.65;;;0.55;;
53797;SDS011;39707;45.384;9.300;2022-09-28T00:54:13;0.88;;;0.65;;
53797;SDS011;39707;45.384;9.300;2022-09-28T00:56:39;0.43;;;0.40;;
53797;SDS011;39707;45.384;9.300;2022-09-28T00:59:07;1.33;;;0.73;;
53797;SDS011;39707;45.384;9.300;2022-09-28T01:01:33;0.32;;;0.32;;
53797;SDS011;39707;45.384;9.300;2022-09-28T01:04:00;0.50;;;0.50;;
53797;SDS011;39707;45.384;9.300;2022-09-28T01:06:27;1.13;;;0.40;;
53797;SDS011;39707;45.384;9.300;2022-09-28T01:08:56;1.02;;;0.95;;
53797;SDS011;39707;45.384;9.300;2022-09-28T01:11:23;0.60;;;0.60;;
53797;SDS011;39707;45.384;9.300;2022-09-28T01:13:50;0.45;;;0.45;;
53797;SDS011;39707;45.384;9.300;2022-09-28T01:21:19;1.63;;;0.85;;
53797;SDS011;39707;45.384;9.300;2022-09-28T01:29:19;2.42;;;2.17;;
53797;SDS011;39707;45.384;9.300;2022-09-28T01:31:49;1.45;;;1.35;;
53797;SDS011;39707;45.384;9.300;2022-09-28T01:34:17;3.10;;;2.25;;
53797;SDS011;39707;45.384;9.300;2022-09-28T01:36:47;1.88;;;1.58;;
53797;SDS011;39707;45.384;9.300;2022-09-28T01:39:15;2.05;;;1.30;;
53797;SDS011;39707;45.384;9.300;2022-09-28T01:41:43;5.93;;;2.58;;
53797;SDS011;39707;45.384;9.300;2022-09-28T01:44:12;3.20;;;2.35;;
53797;SDS011;39707;45.384;9.300;2022-09-28T01:46:40;3.50;;;2.67;;
53797;SDS011;39707;45.384;9.300;2022-09-28T01:49:54;3.28;;;2.83;;
53797;SDS011;39707;45.384;9.300;2022-09-28T01:56:51;3.22;;;2.28;;
53797;SDS011;39707;45.384;9.300;2022-09-28T01:59:28;2.75;;;2.10;;
53797;SDS011;39707;45.384;9.300;2022-09-28T02:02:04;3.60;;;3.30;;
53797;SDS011;39707;45.384;9.300;2022-09-28T02:04:36;4.82;;;3.22;;
53797;SDS011;39707;45.384;9.300;2022-09-28T02:07:07;2.83;;;1.95;;
53797;SDS011;39707;45.384;9.300;2022-09-28T02:09:34;1.83;;;1.65;;
53797;SDS011;39707;45.384;9.300;2022-09-28T02:12:04;1.70;;;1.60;;
53797;SDS011;39707;45.384;9.300;2022-09-28T02:14:32;2.22;;;2.05;;
53797;SDS011;39707;45.384;9.300;2022-09-28T02:17:06;0.88;;;0.77;;
53797;SDS011;39707;45.384;9.300;2022-09-28T02:19:32;3.35;;;2.35;;
53797;SDS011;39707;45.384;9.300;2022-09-28T02:26:54;4.18;;;1.65;;
53797;SDS011;39707;45.384;9.300;2022-09-28T02:29:22;2.33;;;2.05;;
53797;SDS011;39707;45.384;9.300;2022-09-28T02:34:16;2.80;;;1.77;;
53797;SDS011;39707;45.384;9.300;2022-09-28T02:36:42;2.38;;;2.00;;
53797;SDS011;39707;45.384;9.300;2022-09-28T02:39:13;2.22;;;1.73;;
53797;SDS011;39707;45.384;9.300;2022-09-28T02:52:26;2.55;;;0.95;;
53797;SDS011;39707;45.384;9.300;2022-09-28T03:00:17;2.28;;;1.95;;
53797;SDS011;39707;45.384;9.300;2022-09-28T03:08:10;2.17;;;1.75;;
53797;SDS011;39707;45.384;9.300;2022-09-28T03:10:40;3.17;;;2.85;;
53797;SDS011;39707;45.384;9.300;2022-09-28T03:13:06;7.43;;;3.72;;
53797;SDS011;39707;45.384;9.300;2022-09-28T03:15:33;2.50;;;2.30;;
53797;SDS011;39707;45.384;9.300;2022-09-28T03:18:00;3.15;;;2.85;;
53797;SDS011;39707;45.384;9.300;2022-09-28T03:20:26;3.33;;;3.03;;
53797;SDS011;39707;45.384;9.300;2022-09-28T03:22:52;4.13;;;2.47;;
53797;SDS011;39707;45.384;9.300;2022-09-28T03:25:19;3.03;;;2.83;;
53797;SDS011;39707;45.384;9.300;2022-09-28T03:27:49;5.93;;;3.78;;
53797;SDS011;39707;45.384;9.300;2022-09-28T03:30:15;4.80;;;2.63;;
53797;SDS011;39707;45.384;9.300;2022-09-28T03:32:41;1.75;;;1.65;;
53797;SDS011;39707;45.384;9.300;2022-09-28T03:35:07;5.28;;;1.08;;
53797;SDS011;39707;45.384;9.300;2022-09-28T03:37:34;4.03;;;2.28;;
53797;SDS011;39707;45.384;9.300;2022-09-28T03:40:00;2.45;;;1.60;;
53797;SDS011;39707;45.384;9.300;2022-09-28T03:42:27;2.08;;;1.75;;
53797;SDS011;39707;45.384;9.300;2022-09-28T03:44:53;2.08;;;1.85;;
53797;SDS011;39707;45.384;9.300;2022-09-28T03:47:19;3.80;;;2.28;;
53797;SDS011;39707;45.384;9.300;2022-09-28T03:49:45;3.80;;;3.10;;
53797;SDS011;39707;45.384;9.300;2022-09-28T03:52:11;2.95;;;2.67;;
53797;SDS011;39707;45.384;9.300;2022-09-28T03:54:41;3.33;;;1.93;;
53797;SDS011;39707;45.384;9.300;2022-09-28T03:57:07;2.95;;;2.20;;
53797;SDS011;39707;45.384;9.300;2022-09-28T03:59:33;2.65;;;2.50;;
53797;SDS011;39707;45.384;9.300;2022-09-28T04:04:27;2.47;;;2.38;;
53797;SDS011;39707;45.384;9.300;2022-09-28T04:06:53;8.50;;;2.20;;
53797;SDS011;39707;45.384;9.300;2022-09-28T04:09:19;3.80;;;2.25;;
53797;SDS011;39707;45.384;9.300;2022-09-28T04:11:45;3.08;;;2.30;;
53797;SDS011;39707;45.384;9.300;2022-09-28T04:14:11;4.07;;;2.30;;
53797;SDS011;39707;45.384;9.300;2022-09-28T04:16:37;1.63;;;1.52;;
53797;SDS011;39707;45.384;9.300;2022-09-28T04:19:03;2.95;;;1.85;;
53797;SDS011;39707;45.384;9.300;2022-09-28T04:21:29;2.33;;;1.50;;
53797;SDS011;39707;45.384;9.300;2022-09-28T04:23:55;3.35;;;2.28;;
53797;SDS011;39707;45.384;9.300;2022-09-28T04:26:24;3.63;;;3.33;;
53797;SDS011;39707;45.384;9.300;2022-09-28T04:28:50;1.75;;;1.60;;
53797;SDS011;39707;45.384;9.300;2022-09-28T04:31:38;1.05;;;1.05;;
53797;SDS011;39707;45.384;9.300;2022-09-28T04:34:06;4.07;;;2.25;;
53797;SDS011;39707;45.384;9.300;2022-09-28T04:36:32;10.38;;;4.15;;
53797;SDS011;39707;45.384;9.300;2022-09-28T04:38:58;5.78;;;2.60;;
53797;SDS011;39707;45.384;9.300;2022-09-28T04:41:24;4.38;;;2.80;;
53797;SDS011;39707;45.384;9.300;2022-09-28T04:43:51;4.32;;;2.63;;
53797;SDS011;39707;45.384;9.300;2022-09-28T04:46:17;3.90;;;1.88;;
53797;SDS011;39707;45.384;9.300;2022-09-28T04:48:44;6.80;;;2.00;;
53797;SDS011;39707;45.384;9.300;2022-09-28T04:51:10;4.22;;;2.08;;
53797;SDS011;39707;45.384;9.300;2022-09-28T04:53:36;1.70;;;1.38;;
53797;SDS011;39707;45.384;9.300;2022-09-28T04:56:03;4.15;;;2.65;;
53797;SDS011;39707;45.384;9.300;2022-09-28T04:58:30;2.40;;;2.20;;
53797;SDS011;39707;45.384;9.300;2022-09-28T05:00:57;6.47;;;2.53;;
53797;SDS011;39707;45.384;9.300;2022-09-28T05:03:23;1.08;;;1.00;;
53797;SDS011;39707;45.384;9.300;2022-09-28T05:05:49;1.15;;;1.13;;
53797;SDS011;39707;45.384;9.300;2022-09-28T05:08:15;0.90;;;0.90;;
53797;SDS011;39707;45.384;9.300;2022-09-28T05:10:42;1.38;;;1.27;;
53797;SDS011;39707;45.384;9.300;2022-09-28T05:13:08;3.67;;;2.03;;
53797;SDS011;39707;45.384;9.300;2022-09-28T05:15:36;2.25;;;1.92;;
53797;SDS011;39707;45.384;9.300;2022-09-28T05:18:03;3.63;;;3.13;;
53797;SDS011;39707;45.384;9.300;2022-09-28T05:20:30;2.25;;;1.42;;
53797;SDS011;39707;45.384;9.300;2022-09-28T05:22:56;0.95;;;0.95;;
53797;SDS011;39707;45.384;9.300;2022-09-28T05:25:22;3.97;;;2.17;;
53797;SDS011;39707;45.384;9.300;2022-09-28T05:27:53;2.13;;;1.63;;
53797;SDS011;39707;45.384;9.300;2022-09-28T05:30:20;5.88;;;0.88;;
53797;SDS011;39707;45.384;9.300;2022-09-28T05:32:47;1.73;;;1.63;;
53797;SDS011;39707;45.384;9.300;2022-09-28T05:35:15;2.10;;;1.83;;
53797;SDS011;39707;45.384;9.300;2022-09-28T05:37:41;0.93;;;0.93;;
53797;SDS011;39707;45.384;9.300;2022-09-28T05:40:08;2.08;;;1.65;;
53797;SDS011;39707;45.384;9.300;2022-09-28T05:42:34;2.70;;;2.00;;
53797;SDS011;39707;45.384;9.300;2022-09-28T05:45:00;3.35;;;1.23;;
53797;SDS011;39707;45.384;9.300;2022-09-28T05:47:27;1.43;;;1.03;;
53797;SDS011;39707;45.384;9.300;2022-09-28T05:49:54;1.52;;;1.42;;
53797;SDS011;39707;45.384;9.300;2022-09-28T05:52:20;0.30;;;0.30;;
53797;SDS011;39707;45.384;9.300;2022-09-28T05:54:46;0.65;;;0.63;;
53797;SDS011;39707;45.384;9.300;2022-09-28T05:57:13;1.63;;;1.52;;
53797;SDS011;39707;45.384;9.300;2022-09-28T05:59:39;3.80;;;1.75;;
53797;SDS011;39707;45.384;9.300;2022-09-28T06:02:05;1.30;;;0.75;;
53797;SDS011;39707;45.384;9.300;2022-09-28T06:04:31;2.60;;;1.88;;
53797;SDS011;39707;45.384;9.300;2022-09-28T06:06:58;2.92;;;0.98;;
53797;SDS011;39707;45.384;9.300;2022-09-28T06:09:24;0.85;;;0.85;;
53797;SDS011;39707;45.384;9.300;2022-09-28T06:11:50;1.40;;;1.30;;
53797;SDS011;39707;45.384;9.300;2022-09-28T06:14:16;0.70;;;0.70;;
53797;SDS011;39707;45.384;9.300;2022-09-28T06:16:42;1.35;;;1.25;;
53797;SDS011;39707;45.384;9.300;2022-09-28T06:19:08;1.98;;;0.75;;
53797;SDS011;39707;45.384;9.300;2022-09-28T06:21:34;2.40;;;0.50;;
53797;SDS011;39707;45.384;9.300;2022-09-28T06:24:01;2.03;;;0.88;;
53797;SDS011;39707;45.384;9.300;2022-09-28T06:26:27;2.08;;;0.98;;
53797;SDS011;39707;45.384;9.300;2022-09-28T06:28:53;0.70;;;0.70;;
53797;SDS011;39707;45.384;9.300;2022-09-28T06:31:19;1.23;;;1.13;;
53797;SDS011;39707;45.384;9.300;2022-09-28T06:33:48;1.25;;;1.20;;
53797;SDS011;39707;45.384;9.300;2022-09-28T06:36:14;2.08;;;1.35;;
53797;SDS011;39707;45.384;9.300;2022-09-28T06:38:41;1.23;;;1.05;;
53797;SDS011;39707;45.384;9.300;2022-09-28T06:41:07;1.08;;;0.98;;
53797;SDS011;39707;45.384;9.300;2022-09-28T06:43:33;0.60;;;0.60;;
53797;SDS011;39707;45.384;9.300;2022-09-28T06:46:03;0.90;;;0.90;;
53797;SDS011;39707;45.384;9.300;2022-09-28T06:48:29;1.38;;;1.33;;
53797;SDS011;39707;45.384;9.300;2022-09-28T06:50:56;2.65;;;1.08;;
53797;SDS011;39707;45.384;9.300;2022-09-28T06:53:22;0.50;;;0.50;;
53797;SDS011;39707;45.384;9.300;2022-09-28T06:55:48;1.27;;;0.90;;
53797;SDS011;39707;45.384;9.300;2022-09-28T06:58:16;2.15;;;1.95;;
53797;SDS011;39707;45.384;9.300;2022-09-28T07:00:43;1.23;;;0.98;;
53797;SDS011;39707;45.384;9.300;2022-09-28T07:03:10;0.93;;;0.93;;
53797;SDS011;39707;45.384;9.300;2022-09-28T07:05:39;1.45;;;1.38;;
53797;SDS011;39707;45.384;9.300;2022-09-28T07:08:06;5.15;;;1.13;;
53797;SDS011;39707;45.384;9.300;2022-09-28T07:10:32;0.50;;;0.47;;
53797;SDS011;39707;45.384;9.300;2022-09-28T07:13:00;2.15;;;1.42;;
53797;SDS011;39707;45.384;9.300;2022-09-28T07:15:29;1.42;;;1.33;;
53797;SDS011;39707;45.384;9.300;2022-09-28T07:17:56;0.57;;;0.57;;
53797;SDS011;39707;45.384;9.300;2022-09-28T07:20:22;1.23;;;1.20;;
53797;SDS011;39707;45.384;9.300;2022-09-28T07:22:55;0.40;;;0.40;;
53797;SDS011;39707;45.384;9.300;2022-09-28T07:25:22;2.70;;;1.95;;
53797;SDS011;39707;45.384;9.300;2022-09-28T07:27:49;3.15;;;1.05;;
53797;SDS011;39707;45.384;9.300;2022-09-28T07:30:15;0.60;;;0.60;;
53797;SDS011;39707;45.384;9.300;2022-09-28T07:32:43;0.50;;;0.50;;
53797;SDS011;39707;45.384;9.300;2022-09-28T07:35:10;3.78;;;1.42;;
53797;SDS011;39707;45.384;9.300;2022-09-28T07:37:36;1.13;;;0.65;;
53797;SDS011;39707;45.384;9.300;2022-09-28T07:40:05;0.80;;;0.80;;
53797;SDS011;39707;45.384;9.300;2022-09-28T07:42:50;1.52;;;1.23;;
53797;SDS011;39707;45.384;9.300;2022-09-28T07:45:17;1.35;;;0.90;;
53797;SDS011;39707;45.384;9.300;2022-09-28T07:47:44;8.10;;;1.40;;
53797;SDS011;39707;45.384;9.300;2022-09-28T07:50:11;3.42;;;0.50;;
53797;SDS011;39707;45.384;9.300;2022-09-28T07:52:37;0.45;;;0.45;;
53797;SDS011;39707;45.384;9.300;2022-09-28T07:55:03;1.35;;;1.17;;
53797;SDS011;39707;45.384;9.300;2022-09-28T07:57:32;0.90;;;0.77;;
53797;SDS011;39707;45.384;9.300;2022-09-28T07:59:58;0.40;;;0.40;;
53797;SDS011;39707;45.384;9.300;2022-09-28T08:02:26;0.40;;;0.40;;
53797;SDS011;39707;45.384;9.300;2022-09-28T08:04:52;2.45;;;2.25;;
53797;SDS011;39707;45.384;9.300;2022-09-28T08:07:18;1.20;;;1.15;;
53797;SDS011;39707;45.384;9.300;2022-09-28T08:09:45;0.75;;;0.75;;
53797;SDS011;39707;45.384;9.300;2022-09-28T08:12:12;0.82;;;0.82;;
53797;SDS011;39707;45.384;9.300;2022-09-28T08:14:38;0.30;;;0.30;;
53797;SDS011;39707;45.384;9.300;2022-09-28T08:17:04;1.55;;;0.65;;
53797;SDS011;39707;45.384;9.300;2022-09-28T08:19:31;1.30;;;0.73;;
53797;SDS011;39707;45.384;9.300;2022-09-28T08:22:16;2.53;;;0.88;;
53797;SDS011;39707;45.384;9.300;2022-09-28T08:24:43;0.63;;;0.63;;
53797;SDS011;39707;45.384;9.300;2022-09-28T08:27:10;0.60;;;0.60;;
53797;SDS011;39707;45.384;9.300;2022-09-28T08:29:36;0.88;;;0.75;;
53797;SDS011;39707;45.384;9.300;2022-09-28T08:32:05;1.02;;;0.77;;
53797;SDS011;39707;45.384;9.300;2022-09-28T08:34:36;0.77;;;0.43;;
53797;SDS011;39707;45.384;9.300;2022-09-28T08:37:03;0.17;;;0.17;;
53797;SDS011;39707;45.384;9.300;2022-09-28T08:39:29;3.15;;;0.90;;
53797;SDS011;39707;45.384;9.300;2022-09-28T08:44:40;0.40;;;0.38;;
53797;SDS011;39707;45.384;9.300;2022-09-28T08:50:09;0.47;;;0.40;;
53797;SDS011;39707;45.384;9.300;2022-09-28T08:52:38;2.63;;;0.73;;
53797;SDS011;39707;45.384;9.300;2022-09-28T08:57:32;0.40;;;0.30;;
53797;SDS011;39707;45.384;9.300;2022-09-28T09:00:03;0.17;;;0.17;;
53797;SDS011;39707;45.384;9.300;2022-09-28T09:05:02;0.70;;;0.47;;
53797;SDS011;39707;45.384;9.300;2022-09-28T09:12:48;0.10;;;0.10;;
53797;SDS011;39707;45.384;9.300;2022-09-28T09:23:04;1.25;;;0.68;;
53797;SDS011;39707;45.384;9.300;2022-09-28T09:30:43;0.38;;;0.38;;
53797;SDS011;39707;45.384;9.300;2022-09-28T09:46:31;0.65;;;0.60;;
53797;SDS011;39707;45.384;9.300;2022-09-28T09:49:04;1.33;;;0.77;;
53797;SDS011;39707;45.384;9.300;2022-09-28T09:51:36;0.88;;;0.88;;
53797;SDS011;39707;45.384;9.300;2022-09-28T09:54:08;0.30;;;0.30;;
53797;SDS011;39707;45.384;9.300;2022-09-28T09:56:42;0.55;;;0.55;;
53797;SDS011;39707;45.384;9.300;2022-09-28T09:59:11;0.43;;;0.43;;
53797;SDS011;39707;45.384;9.300;2022-09-28T10:04:05;0.38;;;0.38;;
53797;SDS011;39707;45.384;9.300;2022-09-28T10:06:34;0.75;;;0.73;;
53797;SDS011;39707;45.384;9.300;2022-09-28T10:11:27;0.32;;;0.32;;
53797;SDS011;39707;45.384;9.300;2022-09-28T10:13:56;0.85;;;0.73;;
53797;SDS011;39707;45.384;9.300;2022-09-28T10:16:22;0.80;;;0.80;;
53797;SDS011;39707;45.384;9.300;2022-09-28T10:18:48;0.20;;;0.20;;
53797;SDS011;39707;45.384;9.300;2022-09-28T10:21:15;0.90;;;0.40;;
53797;SDS011;39707;45.384;9.300;2022-09-28T10:23:42;0.43;;;0.43;;
53797;SDS011;39707;45.384;9.300;2022-09-28T10:26:17;0.50;;;0.50;;
53797;SDS011;39707;45.384;9.300;2022-09-28T10:31:33;0.38;;;0.38;;
53797;SDS011;39707;45.384;9.300;2022-09-28T10:34:00;0.20;;;0.20;;
53797;SDS011;39707;45.384;9.300;2022-09-28T10:36:26;1.20;;;0.30;;
53797;SDS011;39707;45.384;9.300;2022-09-28T10:38:52;0.70;;;0.65;;
53797;SDS011;39707;45.384;9.300;2022-09-28T10:41:19;0.85;;;0.80;;
53797;SDS011;39707;45.384;9.300;2022-09-28T10:44:02;0.70;;;0.70;;
53797;SDS011;39707;45.384;9.300;2022-09-28T10:46:33;0.52;;;0.52;;
53797;SDS011;39707;45.384;9.300;2022-09-28T10:49:06;1.42;;;1.25;;
53797;SDS011;39707;45.384;9.300;2022-09-28T10:51:43;0.25;;;0.25;;
53797;SDS011;39707;45.384;9.300;2022-09-28T10:56:43;0.57;;;0.52;;
53797;SDS011;39707;45.384;9.300;2022-09-28T10:59:22;0.70;;;0.60;;
53797;SDS011;39707;45.384;9.300;2022-09-28T11:04:22;0.25;;;0.25;;
53797;SDS011;39707;45.384;9.300;2022-09-28T11:06:49;0.35;;;0.35;;
53797;SDS011;39707;45.384;9.300;2022-09-28T11:11:54;0.85;;;0.85;;
53797;SDS011;39707;45.384;9.300;2022-09-28T11:14:25;0.73;;;0.68;;
53797;SDS011;39707;45.384;9.300;2022-09-28T11:17:13;0.70;;;0.60;;
53797;SDS011;39707;45.384;9.300;2022-09-28T11:19:38;0.40;;;0.25;;
53797;SDS011;39707;45.384;9.300;2022-09-28T11:24:54;1.40;;;0.82;;
53797;SDS011;39707;45.384;9.300;2022-09-28T11:27:36;0.32;;;0.32;;
53797;SDS011;39707;45.384;9.300;2022-09-28T11:30:03;0.50;;;0.50;;
53797;SDS011;39707;45.384;9.300;2022-09-28T11:32:41;0.30;;;0.30;;
53797;SDS011;39707;45.384;9.300;2022-09-28T11:35:11;3.30;;;1.40;;
53797;SDS011;39707;45.384;9.300;2022-09-28T11:45:15;1.25;;;1.20;;
53797;SDS011;39707;45.384;9.300;2022-09-28T11:47:51;1.20;;;0.40;;
53797;SDS011;39707;45.384;9.300;2022-09-28T11:53:03;0.35;;;0.35;;
53797;SDS011;39707;45.384;9.300;2022-09-28T11:55:35;0.43;;;0.43;;
53797;SDS011;39707;45.384;9.300;2022-09-28T12:00:36;0.75;;;0.73;;
53797;SDS011;39707;45.384;9.300;2022-09-28T12:03:07;0.75;;;0.75;;
53797;SDS011;39707;45.384;9.300;2022-09-28T12:05:39;0.63;;;0.63;;
53797;SDS011;39707;45.384;9.300;2022-09-28T12:08:08;0.60;;;0.45;;
53797;SDS011;39707;45.384;9.300;2022-09-28T12:10:44;0.43;;;0.43;;
53797;SDS011;39707;45.384;9.300;2022-09-28T12:13:13;1.73;;;1.20;;
53797;SDS011;39707;45.384;9.300;2022-09-28T12:18:27;0.77;;;0.77;;
53797;SDS011;39707;45.384;9.300;2022-09-28T12:23:32;1.10;;;0.73;;
53797;SDS011;39707;45.384;9.300;2022-09-28T12:26:03;0.35;;;0.35;;
53797;SDS011;39707;45.384;9.300;2022-09-28T12:28:36;0.43;;;0.43;;
53797;SDS011;39707;45.384;9.300;2022-09-28T12:31:12;0.30;;;0.30;;
53797;SDS011;39707;45.384;9.300;2022-09-28T12:33:40;0.70;;;0.70;;
53797;SDS011;39707;45.384;9.300;2022-09-28T12:46:20;1.17;;;1.08;;
53797;SDS011;39707;45.384;9.300;2022-09-28T12:59:37;1.15;;;1.05;;
53797;SDS011;39707;45.384;9.300;2022-09-28T13:05:03;2.22;;;0.55;;
53797;SDS011;39707;45.384;9.300;2022-09-28T13:10:05;1.10;;;1.00;;
53797;SDS011;39707;45.384;9.300;2022-09-28T13:15:25;0.68;;;0.68;;
53797;SDS011;39707;45.384;9.300;2022-09-28T13:18:05;4.75;;;1.65;;
53797;SDS011;39707;45.384;9.300;2022-09-28T13:20:42;0.77;;;0.77;;
53797;SDS011;39707;45.384;9.300;2022-09-28T13:23:11;2.92;;;1.58;;
53797;SDS011;39707;45.384;9.300;2022-09-28T13:25:40;2.30;;;1.55;;
53797;SDS011;39707;45.384;9.300;2022-09-28T13:28:08;0.68;;;0.68;;
53797;SDS011;39707;45.384;9.300;2022-09-28T13:30:37;2.78;;;1.58;;
53797;SDS011;39707;45.384;9.300;2022-09-28T13:33:04;0.80;;;0.80;;
53797;SDS011;39707;45.384;9.300;2022-09-28T13:43:28;3.30;;;1.38;;
53797;SDS011;39707;45.384;9.300;2022-09-28T13:45:56;1.30;;;1.23;;
53797;SDS011;39707;45.384;9.300;2022-09-28T13:48:36;5.53;;;1.15;;
53797;SDS011;39707;45.384;9.300;2022-09-28T13:51:10;0.40;;;0.40;;
53797;SDS011;39707;45.384;9.300;2022-09-28T13:53:55;1.48;;;0.80;;
53797;SDS011;39707;45.384;9.300;2022-09-28T13:59:00;0.90;;;0.63;;
53797;SDS011;39707;45.384;9.300;2022-09-28T14:01:37;3.75;;;1.30;;
53797;SDS011;39707;45.384;9.300;2022-09-28T14:04:18;2.10;;;1.08;;
53797;SDS011;39707;45.384;9.300;2022-09-28T14:09:39;4.35;;;2.15;;
53797;SDS011;39707;45.384;9.300;2022-09-28T14:14:50;0.32;;;0.32;;
53797;SDS011;39707;45.384;9.300;2022-09-28T14:19:48;0.63;;;0.63;;
53797;SDS011;39707;45.384;9.300;2022-09-28T14:25:06;3.65;;;2.33;;
53797;SDS011;39707;45.384;9.300;2022-09-28T14:30:23;1.38;;;1.15;;
53797;SDS011;39707;45.384;9.300;2022-09-28T14:35:22;3.55;;;1.10;;
53797;SDS011;39707;45.384;9.300;2022-09-28T14:37:57;0.93;;;0.77;;
53797;SDS011;39707;45.384;9.300;2022-09-28T14:53:51;5.82;;;1.35;;
53797;SDS011;39707;45.384;9.300;2022-09-28T14:56:17;2.00;;;1.13;;
53797;SDS011;39707;45.384;9.300;2022-09-28T14:58:44;0.47;;;0.47;;
53797;SDS011;39707;45.384;9.300;2022-09-28T15:01:20;3.85;;;1.92;;
53797;SDS011;39707;45.384;9.300;2022-09-28T15:03:50;1.60;;;1.50;;
53797;SDS011;39707;45.384;9.300;2022-09-28T15:06:16;2.92;;;1.25;;
53797;SDS011;39707;45.384;9.300;2022-09-28T15:08:45;1.88;;;1.20;;
53797;SDS011;39707;45.384;9.300;2022-09-28T15:11:16;3.45;;;2.63;;
53797;SDS011;39707;45.384;9.300;2022-09-28T15:13:42;2.90;;;2.28;;
53797;SDS011;39707;45.384;9.300;2022-09-28T15:16:09;1.25;;;1.15;;
53797;SDS011;39707;45.384;9.300;2022-09-28T15:21:06;4.05;;;1.50;;
53797;SDS011;39707;45.384;9.300;2022-09-28T15:23:38;1.15;;;1.05;;
53797;SDS011;39707;45.384;9.300;2022-09-28T15:26:05;2.92;;;2.22;;
53797;SDS011;39707;45.384;9.300;2022-09-28T15:28:33;3.28;;;1.73;;
53797;SDS011;39707;45.384;9.300;2022-09-28T15:31:00;1.63;;;1.40;;
53797;SDS011;39707;45.384;9.300;2022-09-28T15:33:29;2.05;;;1.55;;
53797;SDS011;39707;45.384;9.300;2022-09-28T15:36:18;1.60;;;1.17;;
53797;SDS011;39707;45.384;9.300;2022-09-28T15:38:55;2.03;;;1.80;;
53797;SDS011;39707;45.384;9.300;2022-09-28T15:41:21;2.47;;;1.65;;
53797;SDS011;39707;45.384;9.300;2022-09-28T15:46:31;0.60;;;0.60;;
53797;SDS011;39707;45.384;9.300;2022-09-28T15:51:26;5.00;;;1.25;;
53797;SDS011;39707;45.384;9.300;2022-09-28T15:53:54;2.97;;;1.40;;
53797;SDS011;39707;45.384;9.300;2022-09-28T15:56:22;2.60;;;2.40;;
53797;SDS011;39707;45.384;9.300;2022-09-28T16:01:46;4.65;;;2.45;;
53797;SDS011;39707;45.384;9.300;2022-09-28T16:07:03;5.72;;;3.00;;
53797;SDS011;39707;45.384;9.300;2022-09-28T16:09:30;3.55;;;2.20;;
53797;SDS011;39707;45.384;9.300;2022-09-28T16:11:56;6.03;;;1.67;;
53797;SDS011;39707;45.384;9.300;2022-09-28T16:14:23;1.52;;;1.42;;
53797;SDS011;39707;45.384;9.300;2022-09-28T16:16:50;1.73;;;1.25;;
53797;SDS011;39707;45.384;9.300;2022-09-28T16:19:23;1.48;;;1.38;;
53797;SDS011;39707;45.384;9.300;2022-09-28T16:21:50;2.63;;;1.70;;
53797;SDS011;39707;45.384;9.300;2022-09-28T16:24:27;1.45;;;0.95;;
53797;SDS011;39707;45.384;9.300;2022-09-28T16:26:55;3.88;;;2.15;;
53797;SDS011;39707;45.384;9.300;2022-09-28T16:29:23;3.67;;;2.55;;
53797;SDS011;39707;45.384;9.300;2022-09-28T16:31:50;2.45;;;1.63;;
53797;SDS011;39707;45.384;9.300;2022-09-28T16:34:23;1.85;;;1.75;;
53797;SDS011;39707;45.384;9.300;2022-09-28T16:36:49;2.85;;;1.30;;
53797;SDS011;39707;45.384;9.300;2022-09-28T16:39:16;2.72;;;2.10;;
53797;SDS011;39707;45.384;9.300;2022-09-28T16:42:01;4.45;;;1.67;;
53797;SDS011;39707;45.384;9.300;2022-09-28T16:44:27;2.25;;;1.70;;
53797;SDS011;39707;45.384;9.300;2022-09-28T16:46:56;2.22;;;2.03;;
53797;SDS011;39707;45.384;9.300;2022-09-28T16:49:24;4.43;;;2.03;;
53797;SDS011;39707;45.384;9.300;2022-09-28T16:51:50;3.85;;;1.73;;
53797;SDS011;39707;45.384;9.300;2022-09-28T16:54:23;5.97;;;3.13;;
53797;SDS011;39707;45.384;9.300;2022-09-28T16:57:11;4.07;;;2.22;;
53797;SDS011;39707;45.384;9.300;2022-09-28T16:59:37;2.17;;;0.85;;
53797;SDS011;39707;45.384;9.300;2022-09-28T17:02:15;2.17;;;1.98;;
53797;SDS011;39707;45.384;9.300;2022-09-28T17:04:41;2.13;;;1.85;;
53797;SDS011;39707;45.384;9.300;2022-09-28T17:07:08;3.40;;;2.22;;
53797;SDS011;39707;45.384;9.300;2022-09-28T17:09:36;4.97;;;2.70;;
53797;SDS011;39707;45.384;9.300;2022-09-28T17:12:04;3.22;;;2.35;;
53797;SDS011;39707;45.384;9.300;2022-09-28T17:14:31;4.75;;;2.58;;
53797;SDS011;39707;45.384;9.300;2022-09-28T17:16:57;3.05;;;2.03;;
53797;SDS011;39707;45.384;9.300;2022-09-28T17:19:23;2.20;;;2.05;;
53797;SDS011;39707;45.384;9.300;2022-09-28T17:21:51;4.07;;;2.30;;
53797;SDS011;39707;45.384;9.300;2022-09-28T17:24:17;5.28;;;3.20;;
53797;SDS011;39707;45.384;9.300;2022-09-28T17:26:44;3.30;;;2.15;;
53797;SDS011;39707;45.384;9.300;2022-09-28T17:29:13;2.45;;;1.95;;
53797;SDS011;39707;45.384;9.300;2022-09-28T17:31:40;2.53;;;1.30;;
53797;SDS011;39707;45.384;9.300;2022-09-28T17:34:07;4.63;;;2.40;;
53797;SDS011;39707;45.384;9.300;2022-09-28T17:36:34;7.03;;;2.80;;
53797;SDS011;39707;45.384;9.300;2022-09-28T17:38:59;1.95;;;1.85;;
53797;SDS011;39707;45.384;9.300;2022-09-28T17:41:26;3.20;;;2.90;;
53797;SDS011;39707;45.384;9.300;2022-09-28T17:43:52;3.70;;;3.40;;
53797;SDS011;39707;45.384;9.300;2022-09-28T17:48:53;4.35;;;2.53;;
53797;SDS011;39707;45.384;9.300;2022-09-28T17:51:20;1.45;;;1.23;;
53797;SDS011;39707;45.384;9.300;2022-09-28T17:53:47;1.58;;;1.45;;
53797;SDS011;39707;45.384;9.300;2022-09-28T17:56:13;2.95;;;1.85;;
53797;SDS011;39707;45.384;9.300;2022-09-28T17:58:39;4.22;;;1.77;;
53797;SDS011;39707;45.384;9.300;2022-09-28T18:01:05;7.05;;;3.53;;
53797;SDS011;39707;45.384;9.300;2022-09-28T18:03:31;1.30;;;1.25;;
53797;SDS011;39707;45.384;9.300;2022-09-28T18:05:59;3.15;;;2.47;;
53797;SDS011;39707;45.384;9.300;2022-09-28T18:08:26;1.92;;;1.67;;
53797;SDS011;39707;45.384;9.300;2022-09-28T18:10:52;4.30;;;1.45;;
53797;SDS011;39707;45.384;9.300;2022-09-28T18:15:48;1.38;;;1.35;;
53797;SDS011;39707;45.384;9.300;2022-09-28T18:18:14;1.05;;;0.88;;
53797;SDS011;39707;45.384;9.300;2022-09-28T18:20:40;1.38;;;1.27;;
53797;SDS011;39707;45.384;9.300;2022-09-28T18:23:06;4.00;;;2.95;;
53797;SDS011;39707;45.384;9.300;2022-09-28T18:25:37;4.63;;;3.03;;
53797;SDS011;39707;45.384;9.300;2022-09-28T18:28:03;6.22;;;2.70;;
53797;SDS011;39707;45.384;9.300;2022-09-28T18:30:31;3.28;;;1.85;;
53797;SDS011;39707;45.384;9.300;2022-09-28T18:32:57;4.40;;;2.83;;
53797;SDS011;39707;45.384;9.300;2022-09-28T18:35:23;5.70;;;1.52;;